createdAt,value
2023-02-14T06:14:40.709Z,17.17
2023-02-14T06:18:10.020Z,20.63
2023-02-14T06:21:05.325Z,18.60
2023-02-14T07:12:10.023Z,20.53
2023-02-14T17:24:50.695Z,23.55
2023-02-14T17:27:26.520Z,23.48
2023-02-14T17:30:02.230Z,23.30
2023-02-14T17:32:36.768Z,22.98
2023-02-14T17:35:25.070Z,22.80
2023-02-14T17:48:52.572Z,22.98
2023-02-14T17:51:29.535Z,22.23
2023-02-14T17:57:18.359Z,23.17
2023-02-14T18:02:31.543Z,21.50
2023-02-14T18:05:01.005Z,23.73
2023-02-14T18:07:28.032Z,23.80
2023-02-14T18:10:04.867Z,23.27
2023-02-14T18:12:31.868Z,22.77
2023-02-14T18:14:58.946Z,21.30
2023-02-14T18:17:25.794Z,22.65
2023-02-14T18:19:52.514Z,24.60
2023-02-14T18:22:19.338Z,23.20
2023-02-14T18:24:46.135Z,23.13
2023-02-14T18:27:22.532Z,23.85
2023-02-14T18:29:49.451Z,24.05
2023-02-14T18:32:55.265Z,23.52
2023-02-14T18:35:28.390Z,23.42
2023-02-14T18:37:56.431Z,22.07
2023-02-14T18:40:32.200Z,24.83
2023-02-14T18:49:25.930Z,22.90
2023-02-14T18:51:53.825Z,22.97
2023-02-14T18:54:20.557Z,25.58
2023-02-14T18:56:47.777Z,24.58
2023-02-14T18:59:15.844Z,22.35
2023-02-14T19:01:45.172Z,23.30
2023-02-14T19:04:13.269Z,22.83
2023-02-14T19:06:44.165Z,21.25
2023-02-14T19:09:38.210Z,24.85
2023-02-14T19:12:19.713Z,23.30
2023-02-14T19:14:48.732Z,23.55
2023-02-14T19:17:17.842Z,22.00
2023-02-14T19:19:44.951Z,25.40
2023-02-14T19:22:11.693Z,22.88
2023-02-14T19:24:38.668Z,25.77
2023-02-14T19:27:05.945Z,25.77
2023-02-14T19:29:32.728Z,25.63
2023-02-14T19:31:59.714Z,23.17
2023-02-14T19:34:32.961Z,22.38
2023-02-14T19:37:15.068Z,23.00
2023-02-14T19:39:41.989Z,27.15
2023-02-14T19:42:09.357Z,24.73
2023-02-14T19:44:45.100Z,24.73
2023-02-14T19:47:26.830Z,24.75
2023-02-14T19:53:17.814Z,22.30
2023-02-14T19:55:46.077Z,21.93
2023-02-14T19:58:16.640Z,24.73
2023-02-14T20:00:47.187Z,24.90
2023-02-14T20:03:18.547Z,24.33
2023-02-14T20:06:32.221Z,24.80
2023-02-14T20:08:33.245Z,26.57
2023-02-14T20:11:00.649Z,25.38
2023-02-14T20:13:30.889Z,26.15
2023-02-14T20:16:02.920Z,23.70
2023-02-14T20:18:29.844Z,22.65
2023-02-14T20:20:59.992Z,23.17
2023-02-14T20:23:26.999Z,24.80
2023-02-14T20:25:54.010Z,25.25
2023-02-14T20:28:22.329Z,26.08
2023-02-14T20:30:49.198Z,25.35
2023-02-14T20:33:16.298Z,29.20
2023-02-14T20:35:43.140Z,31.35
2023-02-14T20:38:10.119Z,27.05
2023-02-14T20:40:40.266Z,25.30
2023-02-14T20:43:07.120Z,26.67
2023-02-14T20:45:33.910Z,25.87
2023-02-14T20:48:01.466Z,27.33
2023-02-14T20:50:29.146Z,25.15
2023-02-14T20:52:59.594Z,26.48
2023-02-14T20:55:26.568Z,25.42
2023-02-14T20:58:11.223Z,25.67
2023-02-14T21:00:38.029Z,30.13
2023-02-14T21:03:07.314Z,25.70
2023-02-14T21:05:34.105Z,27.52
2023-02-14T21:08:03.031Z,30.10
2023-02-14T21:10:30.018Z,25.93
2023-02-14T21:12:58.432Z,26.15
2023-02-14T21:15:27.567Z,25.30
2023-02-14T21:17:55.219Z,27.52
2023-02-14T21:20:22.105Z,28.98
2023-02-14T21:22:51.205Z,25.53
2023-02-14T21:25:24.735Z,27.15
2023-02-14T21:27:52.828Z,30.80
2023-02-14T21:30:22.951Z,25.13
2023-02-14T21:32:50.948Z,24.92
2023-02-14T21:35:20.469Z,27.43
2023-02-14T21:37:49.450Z,24.67
2023-02-14T21:40:16.753Z,27.13
2023-02-14T21:42:44.758Z,24.80
2023-02-14T21:48:06.103Z,24.20
2023-02-14T21:50:33.051Z,28.33
2023-02-14T21:52:59.850Z,25.70
2023-02-14T21:55:26.804Z,25.50
2023-02-14T21:58:10.951Z,27.20
2023-02-14T22:31:48.685Z,25.75
2023-02-14T22:46:20.328Z,25.60
2023-02-14T22:59:57.303Z,25.27
2023-02-14T23:02:41.726Z,25.38
2023-02-14T23:05:24.182Z,24.05
2023-02-14T23:08:11.477Z,24.58
2023-02-14T23:10:47.890Z,23.90
